Time;durP1;ratioP1;P1;durP2;ratioP2;P2;SDS_P1;SDS_P2;PMS_P1;PMS_P2;Temp;Humidity;BMP_temperature;BMP_pressure;BME280_temperature;BME280_humidity;BME280_pressure;Samples;Min_cycle;Max_cycle;Signal;HPM_P1;HPM_P2
2023/08/18 00:00:16;;;;;;;5.15;2.10;;;;;;;;;;5019519;28;20029;-81
2023/08/18 00:02:42;;;;;;;4.35;2.00;;;;;;;;;;5016024;28;20025;-80
2023/08/18 00:05:08;;;;;;;3.58;1.90;;;;;;;;;;5019716;28;20063;-80
2023/08/18 00:07:34;;;;;;;2.97;1.70;;;;;;;;;;5026594;28;20037;-81
2023/08/18 00:10:01;;;;;;;4.80;1.80;;;;;;;;;;5007279;28;20572;-80
2023/08/18 00:12:27;;;;;;;3.53;1.98;;;;;;;;;;5018903;28;20033;-80
2023/08/18 00:14:53;;;;;;;3.90;1.77;;;;;;;;;;5018399;28;20022;-80
2023/08/18 00:17:18;;;;;;;4.60;1.98;;;;;;;;;;5026363;28;20026;-80
2023/08/18 00:19:44;;;;;;;4.55;1.98;;;;;;;;;;5025693;28;20480;-81
2023/08/18 00:22:10;;;;;;;3.13;1.98;;;;;;;;;;5021216;28;20030;-80
2023/08/18 00:24:36;;;;;;;3.65;2.10;;;;;;;;;;5016097;28;20021;-80
2023/08/18 00:27:02;;;;;;;5.35;2.00;;;;;;;;;;5018404;28;20037;-80
2023/08/18 00:29:28;;;;;;;4.30;2.03;;;;;;;;;;5014391;28;20028;-80
2023/08/18 00:31:54;;;;;;;3.92;1.98;;;;;;;;;;5004909;28;20021;-80
2023/08/18 00:34:19;;;;;;;2.53;1.88;;;;;;;;;;5014837;28;20044;-80
2023/08/18 00:36:45;;;;;;;3.88;1.80;;;;;;;;;;5002927;28;20022;-81
2023/08/18 00:39:10;;;;;;;4.20;1.75;;;;;;;;;;5002176;28;20457;-80
2023/08/18 00:41:36;;;;;;;3.25;1.90;;;;;;;;;;5013955;28;20036;-80
2023/08/18 00:44:02;;;;;;;5.35;2.13;;;;;;;;;;5004349;28;20025;-80
2023/08/18 00:46:28;;;;;;;3.95;2.15;;;;;;;;;;5020469;28;20077;-80
2023/08/18 00:48:58;;;;;;;4.82;2.00;;;;;;;;;;5004185;28;20037;-80
2023/08/18 00:51:24;;;;;;;4.35;2.30;;;;;;;;;;5011064;28;20033;-80
2023/08/18 00:53:50;;;;;;;3.45;2.10;;;;;;;;;;5008411;28;20080;-80
2023/08/18 00:56:16;;;;;;;5.55;2.00;;;;;;;;;;5008123;28;20158;-81
2023/08/18 00:58:42;;;;;;;4.05;2.05;;;;;;;;;;5019206;28;20420;-80
2023/08/18 01:01:08;;;;;;;4.75;2.13;;;;;;;;;;5015183;28;20095;-80
2023/08/18 01:03:34;;;;;;;2.85;1.95;;;;;;;;;;5017238;28;20040;-80
2023/08/18 01:05:59;;;;;;;4.03;2.40;;;;;;;;;;5006938;28;20027;-80
2023/08/18 01:08:27;;;;;;;4.07;2.35;;;;;;;;;;5022110;28;20022;-80
2023/08/18 01:11:17;;;;;;;4.20;2.53;;;;;;;;;;5009611;28;20030;-81
2023/08/18 01:13:46;;;;;;;4.32;2.05;;;;;;;;;;5015256;28;20153;-80
2023/08/18 01:16:21;;;;;;;3.10;2.10;;;;;;;;;;5027341;28;20029;-80
2023/08/18 01:18:47;;;;;;;3.20;2.25;;;;;;;;;;5006133;28;20029;-80
2023/08/18 01:21:13;;;;;;;3.03;1.90;;;;;;;;;;5017292;28;20025;-81
2023/08/18 01:23:40;;;;;;;4.97;2.15;;;;;;;;;;4999075;28;20036;-80
2023/08/18 01:26:05;;;;;;;3.47;1.95;;;;;;;;;;4996798;28;20025;-80
2023/08/18 01:28:33;;;;;;;3.80;2.00;;;;;;;;;;5025831;28;20013;-79
2023/08/18 01:31:01;;;;;;;2.42;1.90;;;;;;;;;;5021311;28;20029;-80
2023/08/18 01:33:34;;;;;;;3.80;1.98;;;;;;;;;;5007464;28;20033;-80
2023/08/18 01:36:04;;;;;;;4.35;2.22;;;;;;;;;;5017646;28;20080;-79
2023/08/18 01:38:31;;;;;;;4.05;2.35;;;;;;;;;;5015417;28;20099;-80
2023/08/18 01:40:58;;;;;;;3.40;1.90;;;;;;;;;;5006755;28;20393;-80
2023/08/18 01:43:24;;;;;;;5.30;2.10;;;;;;;;;;5011245;28;20036;-80
2023/08/18 01:45:49;;;;;;;3.55;2.00;;;;;;;;;;5002538;28;20038;-81
2023/08/18 01:48:14;;;;;;;6.03;2.10;;;;;;;;;;5016228;28;20057;-80
2023/08/18 01:50:40;;;;;;;4.60;1.98;;;;;;;;;;5016445;28;20079;-79
2023/08/18 01:53:05;;;;;;;3.00;1.98;;;;;;;;;;5022126;28;20030;-79
2023/08/18 01:55:31;;;;;;;3.75;2.20;;;;;;;;;;5022332;28;20381;-82
2023/08/18 01:57:56;;;;;;;6.30;2.20;;;;;;;;;;5014249;28;20034;-81
2023/08/18 02:00:22;;;;;;;4.38;2.10;;;;;;;;;;5006052;28;20030;-81
2023/08/18 02:02:47;;;;;;;3.75;2.15;;;;;;;;;;5010708;28;20034;-82
2023/08/18 02:05:13;;;;;;;2.60;2.00;;;;;;;;;;5001588;28;20028;-81
2023/08/18 02:07:39;;;;;;;7.72;2.05;;;;;;;;;;5007804;28;20060;-81
2023/08/18 02:10:05;;;;;;;5.32;2.08;;;;;;;;;;5008155;28;20025;-81
2023/08/18 02:12:30;;;;;;;4.55;2.00;;;;;;;;;;5014315;28;20029;-81
2023/08/18 02:14:56;;;;;;;3.65;2.08;;;;;;;;;;5013334;28;20088;-80
2023/08/18 02:17:22;;;;;;;4.70;1.90;;;;;;;;;;5022477;28;20044;-81
2023/08/18 02:19:47;;;;;;;3.08;1.75;;;;;;;;;;5019375;28;20064;-81
2023/08/18 02:22:13;;;;;;;2.95;2.20;;;;;;;;;;4981352;28;20444;-81
2023/08/18 02:24:38;;;;;;;6.15;2.20;;;;;;;;;;5009576;28;20459;-81
2023/08/18 02:27:04;;;;;;;4.43;2.33;;;;;;;;;;5012544;28;20030;-81
2023/08/18 02:29:30;;;;;;;2.90;2.03;;;;;;;;;;5005804;28;20030;-81
2023/08/18 02:31:56;;;;;;;2.88;1.98;;;;;;;;;;5010396;28;20871;-80
2023/08/18 02:34:21;;;;;;;3.13;2.00;;;;;;;;;;5020313;28;20060;-81
2023/08/18 02:36:47;;;;;;;3.70;2.08;;;;;;;;;;5014694;28;20057;-81
2023/08/18 02:39:12;;;;;;;3.08;2.00;;;;;;;;;;5004077;28;20397;-82
2023/08/18 02:41:38;;;;;;;3.80;1.95;;;;;;;;;;5023080;28;20031;-81
2023/08/18 02:44:03;;;;;;;4.55;2.10;;;;;;;;;;5023075;28;20509;-81
2023/08/18 02:46:29;;;;;;;3.38;2.28;;;;;;;;;;5014137;28;20495;-81
2023/08/18 02:48:54;;;;;;;2.83;2.00;;;;;;;;;;5014702;28;20529;-80
2023/08/18 02:51:20;;;;;;;3.83;1.98;;;;;;;;;;5012120;28;20489;-81
2023/08/18 02:53:48;;;;;;;3.72;2.17;;;;;;;;;;5022911;28;20029;-81
2023/08/18 02:56:14;;;;;;;6.13;2.30;;;;;;;;;;5016843;28;20080;-81
2023/08/18 02:58:40;;;;;;;2.53;2.00;;;;;;;;;;5003364;28;20528;-81
2023/08/18 03:01:08;;;;;;;3.47;2.10;;;;;;;;;;5016062;28;20017;-80
2023/08/18 03:03:34;;;;;;;2.55;2.10;;;;;;;;;;5007095;28;20092;-80
2023/08/18 03:06:00;;;;;;;3.30;2.05;;;;;;;;;;5006972;28;20017;-81
2023/08/18 03:08:26;;;;;;;5.88;2.30;;;;;;;;;;5016777;28;20535;-80
2023/08/18 03:10:59;;;;;;;3.38;2.10;;;;;;;;;;5005553;28;20034;-81
2023/08/18 03:13:25;;;;;;;3.38;2.13;;;;;;;;;;5008120;28;20431;-81
2023/08/18 03:15:51;;;;;;;6.20;2.20;;;;;;;;;;5023409;28;20025;-81
2023/08/18 03:18:17;;;;;;;4.15;2.20;;;;;;;;;;5018907;28;20469;-81
2023/08/18 03:20:46;;;;;;;3.25;2.45;;;;;;;;;;5008662;28;20064;-80
2023/08/18 03:23:15;;;;;;;5.43;2.30;;;;;;;;;;5008480;28;20500;-80
2023/08/18 03:25:42;;;;;;;4.75;2.35;;;;;;;;;;5011583;28;20045;-80
2023/08/18 03:28:08;;;;;;;2.92;2.10;;;;;;;;;;5004366;28;20021;-81
2023/08/18 03:30:38;;;;;;;3.17;2.00;;;;;;;;;;5004191;28;20409;-81
2023/08/18 03:33:05;;;;;;;3.75;2.30;;;;;;;;;;5001192;28;20038;-80
2023/08/18 03:35:32;;;;;;;2.90;2.13;;;;;;;;;;5014675;28;20488;-81
2023/08/18 03:38:01;;;;;;;4.10;2.13;;;;;;;;;;5014753;28;20512;-81
2023/08/18 03:40:26;;;;;;;3.35;2.20;;;;;;;;;;5007056;28;20087;-81
2023/08/18 03:42:52;;;;;;;3.15;2.00;;;;;;;;;;5019003;28;20029;-81
2023/08/18 03:45:18;;;;;;;3.42;2.13;;;;;;;;;;5016840;28;20029;-81
2023/08/18 03:47:45;;;;;;;2.97;2.22;;;;;;;;;;5001004;28;20507;-81
2023/08/18 03:50:11;;;;;;;5.35;2.50;;;;;;;;;;5021492;28;20061;-80
2023/08/18 03:52:37;;;;;;;3.85;2.50;;;;;;;;;;5014667;28;20033;-82
2023/08/18 03:55:04;;;;;;;3.67;2.38;;;;;;;;;;5004554;28;20512;-81
2023/08/18 03:57:30;;;;;;;3.33;2.22;;;;;;;;;;5000209;28;20061;-82
2023/08/18 03:59:56;;;;;;;4.82;2.22;;;;;;;;;;5021965;28;20057;-82
2023/08/18 04:02:23;;;;;;;2.85;2.15;;;;;;;;;;5009217;28;20030;-81
2023/08/18 04:04:48;;;;;;;2.95;2.30;;;;;;;;;;5023271;28;20061;-81
2023/08/18 04:07:14;;;;;;;3.65;2.15;;;;;;;;;;5016700;28;20076;-81
2023/08/18 04:09:39;;;;;;;3.67;2.17;;;;;;;;;;4993202;28;20033;-81
2023/08/18 04:12:05;;;;;;;3.10;2.35;;;;;;;;;;5010337;28;20029;-82
2023/08/18 04:14:31;;;;;;;3.80;2.10;;;;;;;;;;5026253;28;20034;-81
2023/08/18 04:16:57;;;;;;;3.47;2.25;;;;;;;;;;5015911;28;20468;-81
2023/08/18 04:19:23;;;;;;;5.97;2.33;;;;;;;;;;5009392;28;20058;-80
2023/08/18 04:21:49;;;;;;;4.68;2.30;;;;;;;;;;5016505;28;20026;-80
2023/08/18 04:24:14;;;;;;;4.05;2.10;;;;;;;;;;5016776;28;20520;-80
2023/08/18 04:26:40;;;;;;;4.72;2.20;;;;;;;;;;5012565;28;20106;-80
2023/08/18 04:29:06;;;;;;;3.78;2.15;;;;;;;;;;5003450;28;20029;-81
2023/08/18 04:31:32;;;;;;;3.13;1.85;;;;;;;;;;5016279;28;20042;-82
2023/08/18 04:33:59;;;;;;;5.32;2.30;;;;;;;;;;5013503;28;20029;-82
2023/08/18 04:36:26;;;;;;;4.10;2.20;;;;;;;;;;5014258;28;20496;-82
2023/08/18 04:38:54;;;;;;;3.38;2.00;;;;;;;;;;5004226;28;20038;-80
2023/08/18 04:41:23;;;;;;;3.05;1.95;;;;;;;;;;5000157;28;20034;-81
2023/08/18 04:43:51;;;;;;;3.42;2.00;;;;;;;;;;5010982;28;20029;-79
2023/08/18 04:46:20;;;;;;;2.50;2.00;;;;;;;;;;5015371;28;20433;-81
2023/08/18 04:48:46;;;;;;;4.07;2.25;;;;;;;;;;5009573;28;20485;-80
2023/08/18 04:51:11;;;;;;;4.28;2.10;;;;;;;;;;5002519;28;20084;-81
2023/08/18 04:53:37;;;;;;;4.22;2.05;;;;;;;;;;5012604;28;20404;-81
2023/08/18 04:56:03;;;;;;;4.70;2.10;;;;;;;;;;5014847;28;20181;-81
2023/08/18 04:58:29;;;;;;;5.50;2.40;;;;;;;;;;4992802;28;20545;-80
2023/08/18 05:00:58;;;;;;;3.70;2.10;;;;;;;;;;5005606;28;20037;-81
2023/08/18 05:03:24;;;;;;;4.82;2.35;;;;;;;;;;5007583;28;20052;-79
2023/08/18 05:06:00;;;;;;;5.25;2.88;;;;;;;;;;5001908;28;20037;-80
2023/08/18 05:08:27;;;;;;;2.92;2.33;;;;;;;;;;5006374;28;20088;-79
2023/08/18 05:10:52;;;;;;;5.20;2.65;;;;;;;;;;5007915;28;20037;-81
2023/08/18 05:13:18;;;;;;;5.60;2.60;;;;;;;;;;5020625;28;20033;-82
2023/08/18 05:15:43;;;;;;;5.60;2.60;;;;;;;;;;5019719;28;20030;-82
2023/08/18 05:18:08;;;;;;;5.95;2.40;;;;;;;;;;5014925;28;20042;-80
2023/08/18 05:20:34;;;;;;;4.43;2.53;;;;;;;;;;5014770;28;20132;-81
2023/08/18 05:22:59;;;;;;;5.45;2.55;;;;;;;;;;5025309;28;20112;-80
2023/08/18 05:25:25;;;;;;;4.47;2.30;;;;;;;;;;5010581;28;20033;-81
2023/08/18 05:27:50;;;;;;;5.13;2.47;;;;;;;;;;5018402;28;20440;-81
2023/08/18 05:30:16;;;;;;;5.10;2.20;;;;;;;;;;5015015;28;20026;-82
2023/08/18 05:32:41;;;;;;;3.85;2.10;;;;;;;;;;5022234;28;20044;-81
2023/08/18 05:35:10;;;;;;;4.65;2.63;;;;;;;;;;4986887;28;20036;-80
2023/08/18 05:37:35;;;;;;;3.38;2.10;;;;;;;;;;5019302;28;20187;-81
2023/08/18 05:40:00;;;;;;;4.03;2.20;;;;;;;;;;5016092;28;20560;-81
2023/08/18 05:42:28;;;;;;;2.92;2.10;;;;;;;;;;5015693;28;20056;-80
2023/08/18 05:44:53;;;;;;;9.20;6.00;;;;;;;;;;5011688;28;20040;-81
2023/08/18 05:47:18;;;;;;;5.82;3.50;;;;;;;;;;5019233;28;20037;-81
2023/08/18 05:49:44;;;;;;;5.00;2.42;;;;;;;;;;5022065;28;20069;-81
2023/08/18 05:52:09;;;;;;;3.35;2.22;;;;;;;;;;5020868;28;20036;-81
2023/08/18 05:54:35;;;;;;;4.30;2.10;;;;;;;;;;5012319;28;20124;-80
2023/08/18 05:57:00;;;;;;;3.83;2.00;;;;;;;;;;5015294;28;20090;-79
2023/08/18 05:59:26;;;;;;;4.18;2.40;;;;;;;;;;5003550;28;20030;-79
2023/08/18 06:01:52;;;;;;;3.67;1.92;;;;;;;;;;5016999;28;20036;-81
2023/08/18 06:04:18;;;;;;;3.15;2.03;;;;;;;;;;5015593;28;20063;-81
2023/08/18 06:06:43;;;;;;;6.03;2.00;;;;;;;;;;5012547;28;20034;-82
2023/08/18 06:09:08;;;;;;;6.22;2.30;;;;;;;;;;5015844;28;20056;-81
2023/08/18 06:11:34;;;;;;;3.50;2.20;;;;;;;;;;5021204;28;20476;-81
2023/08/18 06:14:00;;;;;;;5.35;2.40;;;;;;;;;;5018063;28;20064;-80
2023/08/18 06:16:25;;;;;;;4.57;2.30;;;;;;;;;;5002531;28;20485;-81
2023/08/18 06:18:50;;;;;;;4.28;2.35;;;;;;;;;;5012135;28;20108;-81
2023/08/18 06:21:16;;;;;;;3.15;2.33;;;;;;;;;;5017683;28;20037;-81
2023/08/18 06:23:41;;;;;;;5.72;2.30;;;;;;;;;;5021742;28;20381;-81
2023/08/18 06:26:07;;;;;;;3.42;1.88;;;;;;;;;;5016848;28;20033;-81
2023/08/18 06:28:32;;;;;;;2.78;1.80;;;;;;;;;;5013066;28;20397;-81
2023/08/18 06:31:07;;;;;;;4.68;2.25;;;;;;;;;;5011638;28;20045;-82
2023/08/18 06:33:36;;;;;;;4.63;2.17;;;;;;;;;;5025752;28;20362;-81
2023/08/18 06:36:02;;;;;;;3.70;2.20;;;;;;;;;;5020170;28;20750;-82
2023/08/18 06:38:28;;;;;;;3.33;2.20;;;;;;;;;;5016644;28;20049;-81
2023/08/18 06:40:54;;;;;;;4.32;2.03;;;;;;;;;;5015411;28;20033;-82
2023/08/18 06:43:19;;;;;;;6.30;3.17;;;;;;;;;;5010436;28;20025;-82
2023/08/18 06:45:45;;;;;;;6.03;2.60;;;;;;;;;;5018560;28;20037;-82
2023/08/18 06:48:10;;;;;;;3.10;2.15;;;;;;;;;;5023004;28;20037;-82
2023/08/18 06:50:36;;;;;;;4.28;1.90;;;;;;;;;;5023963;28;20034;-81
2023/08/18 06:53:03;;;;;;;4.53;2.00;;;;;;;;;;5012935;28;20397;-81
2023/08/18 06:55:28;;;;;;;3.35;1.90;;;;;;;;;;5015541;28;20091;-81
2023/08/18 06:57:54;;;;;;;5.70;2.08;;;;;;;;;;5011480;28;20034;-82
2023/08/18 07:00:20;;;;;;;3.60;1.80;;;;;;;;;;5023250;28;20121;-85
2023/08/18 07:02:47;;;;;;;4.10;1.70;;;;;;;;;;5014531;28;20060;-85
2023/08/18 07:05:16;;;;;;;2.13;1.70;;;;;;;;;;5015631;28;20096;-82
2023/08/18 07:07:41;;;;;;;3.22;1.90;;;;;;;;;;5019607;28;20088;-82
2023/08/18 07:10:07;;;;;;;2.88;1.88;;;;;;;;;;5006225;28;20030;-82
2023/08/18 07:12:33;;;;;;;3.08;1.90;;;;;;;;;;5023106;28;20030;-82
2023/08/18 07:14:58;;;;;;;3.83;2.00;;;;;;;;;;5021177;28;20037;-82
2023/08/18 07:17:24;;;;;;;3.78;2.10;;;;;;;;;;5019643;28;20040;-83
2023/08/18 07:19:49;;;;;;;4.03;2.00;;;;;;;;;;5021497;28;20038;-86
2023/08/18 07:22:15;;;;;;;2.83;1.85;;;;;;;;;;5026427;28;20040;-83
2023/08/18 07:24:40;;;;;;;3.85;1.77;;;;;;;;;;5008551;28;20110;-85
2023/08/18 07:27:06;;;;;;;4.18;2.10;;;;;;;;;;5003769;28;20042;-83
2023/08/18 07:29:33;;;;;;;2.60;1.80;;;;;;;;;;5013221;28;20034;-82
2023/08/18 07:32:00;;;;;;;2.72;1.70;;;;;;;;;;5029371;28;20037;-82
2023/08/18 07:34:25;;;;;;;3.83;1.90;;;;;;;;;;5025408;28;20048;-80
2023/08/18 07:36:51;;;;;;;4.15;1.77;;;;;;;;;;5020335;28;20030;-82
2023/08/18 07:39:16;;;;;;;4.57;1.98;;;;;;;;;;5015666;28;20026;-83
2023/08/18 07:41:42;;;;;;;4.25;2.10;;;;;;;;;;5011868;28;20433;-83
2023/08/18 07:44:08;;;;;;;4.40;1.90;;;;;;;;;;5027391;28;20032;-83
2023/08/18 07:46:34;;;;;;;5.53;2.00;;;;;;;;;;5022345;28;20048;-83
2023/08/18 07:49:00;;;;;;;6.32;2.03;;;;;;;;;;5011664;28;20584;-82
2023/08/18 07:51:25;;;;;;;4.57;2.10;;;;;;;;;;5019391;28;20036;-82
2023/08/18 07:53:51;;;;;;;3.78;2.30;;;;;;;;;;5014841;28;20037;-82
2023/08/18 07:56:16;;;;;;;3.58;2.00;;;;;;;;;;5022820;28;20037;-83
2023/08/18 07:58:42;;;;;;;3.75;2.00;;;;;;;;;;5026989;28;20404;-82
2023/08/18 08:01:07;;;;;;;3.28;2.03;;;;;;;;;;5005736;28;20397;-83
2023/08/18 08:03:33;;;;;;;6.28;2.10;;;;;;;;;;5016094;28;20042;-83
2023/08/18 08:05:58;;;;;;;4.03;1.85;;;;;;;;;;5019183;28;20064;-83
2023/08/18 08:08:24;;;;;;;4.20;2.00;;;;;;;;;;5023732;28;20449;-82
2023/08/18 08:10:49;;;;;;;4.18;1.90;;;;;;;;;;5024261;28;20026;-85
2023/08/18 08:13:15;;;;;;;3.00;2.00;;;;;;;;;;5019382;28;20503;-83
2023/08/18 08:15:45;;;;;;;3.58;1.83;;;;;;;;;;5014608;28;20032;-84
2023/08/18 08:18:15;;;;;;;4.95;1.90;;;;;;;;;;5019020;28;20520;-84
2023/08/18 08:20:42;;;;;;;3.05;1.90;;;;;;;;;;5007286;28;20072;-83
2023/08/18 08:23:07;;;;;;;4.15;2.10;;;;;;;;;;5015318;28;20033;-84
2023/08/18 08:25:34;;;;;;;4.75;2.10;;;;;;;;;;5017992;28;20452;-83
2023/08/18 08:28:00;;;;;;;4.72;1.80;;;;;;;;;;5016261;28;20044;-83
2023/08/18 08:30:26;;;;;;;2.00;1.65;;;;;;;;;;5024909;28;20038;-83
2023/08/18 08:32:51;;;;;;;5.43;2.00;;;;;;;;;;5005264;28;20104;-83
2023/08/18 08:35:17;;;;;;;2.58;1.88;;;;;;;;;;5005220;28;20116;-81
2023/08/18 08:37:42;;;;;;;3.65;1.98;;;;;;;;;;5017107;28;20041;-85
2023/08/18 08:40:17;;;;;;;2.88;2.00;;;;;;;;;;5018482;28;20044;-83
2023/08/18 08:42:42;;;;;;;3.85;1.85;;;;;;;;;;5030816;28;20029;-82
2023/08/18 08:45:08;;;;;;;3.28;2.08;;;;;;;;;;5029295;28;20489;-82
2023/08/18 08:47:34;;;;;;;5.05;2.05;;;;;;;;;;5023430;28;20354;-83
2023/08/18 08:50:03;;;;;;;3.08;2.00;;;;;;;;;;5020476;28;20022;-82
2023/08/18 08:52:37;;;;;;;3.53;2.10;;;;;;;;;;5019332;28;20561;-84
2023/08/18 08:55:03;;;;;;;3.70;2.03;;;;;;;;;;5025366;28;20072;-81
2023/08/18 08:57:28;;;;;;;4.03;2.10;;;;;;;;;;5018539;28;20073;-82
2023/08/18 08:59:54;;;;;;;3.05;2.00;;;;;;;;;;5017490;28;20049;-83
2023/08/18 09:02:22;;;;;;;6.28;2.10;;;;;;;;;;5014904;28;20034;-83
2023/08/18 09:04:48;;;;;;;3.90;1.90;;;;;;;;;;5021504;28;20132;-82
2023/08/18 09:07:14;;;;;;;4.20;1.80;;;;;;;;;;5018644;28;20118;-83
2023/08/18 09:09:41;;;;;;;2.70;1.95;;;;;;;;;;5018788;28;20413;-82
2023/08/18 09:12:07;;;;;;;2.97;2.00;;;;;;;;;;5018418;28;20099;-83
2023/08/18 09:14:34;;;;;;;4.28;1.95;;;;;;;;;;5015095;28;20025;-83
2023/08/18 09:17:01;;;;;;;2.65;1.80;;;;;;;;;;5018993;28;20037;-84
2023/08/18 09:19:26;;;;;;;2.22;1.80;;;;;;;;;;5024098;28;20393;-85
2023/08/18 09:21:52;;;;;;;5.15;2.00;;;;;;;;;;5020232;28;20193;-81
2023/08/18 09:24:20;;;;;;;4.15;1.98;;;;;;;;;;5015856;28;20038;-83
2023/08/18 09:26:46;;;;;;;3.50;2.10;;;;;;;;;;5015705;28;20707;-83
2023/08/18 09:29:12;;;;;;;2.95;1.98;;;;;;;;;;5008940;28;20082;-84
2023/08/18 09:31:37;;;;;;;2.58;1.88;;;;;;;;;;5023940;28;20087;-85
2023/08/18 09:34:03;;;;;;;2.17;1.80;;;;;;;;;;5018050;28;20493;-80
2023/08/18 09:36:31;;;;;;;5.63;1.67;;;;;;;;;;5014169;28;20055;-82
2023/08/18 09:38:56;;;;;;;4.45;2.42;;;;;;;;;;5020001;28;20120;-82
2023/08/18 09:41:22;;;;;;;3.25;2.10;;;;;;;;;;5025807;28;20120;-83
2023/08/18 09:43:48;;;;;;;3.38;1.90;;;;;;;;;;5022368;28;20481;-83
2023/08/18 09:46:16;;;;;;;7.78;2.30;;;;;;;;;;5019588;28;20041;-83
2023/08/18 09:48:45;;;;;;;6.53;1.80;;;;;;;;;;5020336;28;20083;-84
2023/08/18 09:51:12;;;;;;;4.32;1.90;;;;;;;;;;5033336;28;20026;-83
2023/08/18 09:53:45;;;;;;;3.00;1.90;;;;;;;;;;5023123;28;20030;-84
2023/08/18 09:56:13;;;;;;;3.15;1.83;;;;;;;;;;5018338;28;20401;-83
2023/08/18 09:58:50;;;;;;;3.55;1.90;;;;;;;;;;5017549;28;20030;-83
2023/08/18 10:01:17;;;;;;;2.53;1.80;;;;;;;;;;5019187;28;20042;-84
2023/08/18 10:03:46;;;;;;;3.97;1.90;;;;;;;;;;5018230;28;20183;-83
2023/08/18 10:06:12;;;;;;;5.45;2.50;;;;;;;;;;5011215;28;20037;-84
2023/08/18 10:08:40;;;;;;;3.22;1.98;;;;;;;;;;5020156;28;20381;-84
2023/08/18 10:11:07;;;;;;;3.80;2.22;;;;;;;;;;5015978;28;20072;-84
2023/08/18 10:13:33;;;;;;;6.43;2.28;;;;;;;;;;5018466;28;20033;-84
2023/08/18 10:16:04;;;;;;;4.65;2.33;;;;;;;;;;4996655;28;20080;-84
2023/08/18 10:18:30;;;;;;;8.70;2.50;;;;;;;;;;5013376;28;20132;-83
2023/08/18 10:20:56;;;;;;;3.33;2.30;;;;;;;;;;5011029;28;20037;-84
2023/08/18 10:23:29;;;;;;;3.67;2.22;;;;;;;;;;5013834;28;20109;-83
2023/08/18 10:25:54;;;;;;;4.43;2.20;;;;;;;;;;5015153;28;20026;-84
2023/08/18 10:28:22;;;;;;;4.22;2.13;;;;;;;;;;5021652;28;20388;-84
2023/08/18 10:30:56;;;;;;;5.55;2.38;;;;;;;;;;5011584;28;20040;-84
2023/08/18 10:33:32;;;;;;;3.95;2.33;;;;;;;;;;4998521;28;20034;-84
2023/08/18 10:36:01;;;;;;;3.10;2.20;;;;;;;;;;5016057;28;20033;-84
2023/08/18 10:38:29;;;;;;;5.55;2.47;;;;;;;;;;5020901;28;20392;-88
2023/08/18 10:40:54;;;;;;;4.03;2.35;;;;;;;;;;5029168;28;20029;-82
2023/08/18 10:43:20;;;;;;;4.05;2.60;;;;;;;;;;5028417;28;20034;-85
2023/08/18 10:45:50;;;;;;;3.08;2.30;;;;;;;;;;5022198;28;20520;-82
2023/08/18 10:48:16;;;;;;;3.92;2.45;;;;;;;;;;5030943;28;20044;-84
2023/08/18 10:50:45;;;;;;;6.55;2.60;;;;;;;;;;5038496;28;20021;-83
2023/08/18 10:53:12;;;;;;;3.08;2.30;;;;;;;;;;5024971;28;20049;-82
2023/08/18 10:55:39;;;;;;;3.17;2.20;;;;;;;;;;5018266;28;20091;-82
2023/08/18 10:58:05;;;;;;;4.72;2.30;;;;;;;;;;5016341;28;20412;-83
2023/08/18 11:00:33;;;;;;;4.10;2.63;;;;;;;;;;5022567;28;20557;-82
2023/08/18 11:02:58;;;;;;;5.15;2.28;;;;;;;;;;5031390;28;20029;-88
2023/08/18 11:05:24;;;;;;;4.55;2.63;;;;;;;;;;5012364;28;20034;-86
2023/08/18 11:07:50;;;;;;;3.45;2.40;;;;;;;;;;5027060;28;20037;-87
2023/08/18 11:10:23;;;;;;;3.53;2.40;;;;;;;;;;5028148;28;20036;-87
2023/08/18 11:12:51;;;;;;;3.87;2.40;;;;;;;;;;5027570;28;20062;-85
2023/08/18 11:15:19;;;;;;;3.53;2.40;;;;;;;;;;5031218;28;20687;-85
2023/08/18 11:17:46;;;;;;;5.65;2.40;;;;;;;;;;5031858;28;20033;-85
2023/08/18 11:20:12;;;;;;;4.82;2.50;;;;;;;;;;5029244;28;20040;-85
2023/08/18 11:22:39;;;;;;;4.68;2.50;;;;;;;;;;5025874;28;20091;-86
2023/08/18 11:25:06;;;;;;;6.30;2.67;;;;;;;;;;5027978;28;20033;-86
2023/08/18 11:27:32;;;;;;;4.28;2.53;;;;;;;;;;5017965;28;20036;-87
2023/08/18 11:29:58;;;;;;;4.75;2.85;;;;;;;;;;5019867;28;20041;-86
2023/08/18 11:32:25;;;;;;;5.38;2.47;;;;;;;;;;5027532;28;20034;-85
2023/08/18 11:34:50;;;;;;;4.07;2.33;;;;;;;;;;5027025;28;20042;-85
2023/08/18 11:37:20;;;;;;;5.55;2.67;;;;;;;;;;5031355;28;20061;-85
2023/08/18 11:39:46;;;;;;;5.10;2.50;;;;;;;;;;5035745;28;20133;-85
2023/08/18 11:42:12;;;;;;;5.95;2.70;;;;;;;;;;5030868;28;20042;-85
2023/08/18 11:44:38;;;;;;;3.83;2.53;;;;;;;;;;5026708;28;20032;-86
2023/08/18 11:47:06;;;;;;;4.18;2.60;;;;;;;;;;5029335;28;20052;-86
2023/08/18 11:49:31;;;;;;;5.10;2.80;;;;;;;;;;5036432;28;20072;-86
2023/08/18 11:52:05;;;;;;;5.43;2.50;;;;;;;;;;5013468;28;20026;-85
2023/08/18 11:54:36;;;;;;;6.05;2.70;;;;;;;;;;5028355;28;20068;-84
2023/08/18 11:57:04;;;;;;;6.38;2.42;;;;;;;;;;5024971;28;20044;-85
2023/08/18 11:59:29;;;;;;;3.97;2.72;;;;;;;;;;5037162;28;20050;-84
2023/08/18 12:01:57;;;;;;;3.67;2.65;;;;;;;;;;5032192;28;20097;-84
2023/08/18 12:04:26;;;;;;;4.75;2.70;;;;;;;;;;5009058;28;20060;-85
2023/08/18 12:06:52;;;;;;;4.32;2.70;;;;;;;;;;5023330;28;20060;-85
2023/08/18 12:09:19;;;;;;;3.50;2.53;;;;;;;;;;5017348;28;20033;-85
2023/08/18 12:11:44;;;;;;;4.00;2.53;;;;;;;;;;5020961;28;20033;-85
2023/08/18 12:14:10;;;;;;;5.75;2.72;;;;;;;;;;5025494;28;20092;-85
2023/08/18 12:16:35;;;;;;;5.93;2.78;;;;;;;;;;5026222;28;20022;-85
2023/08/18 12:19:04;;;;;;;5.03;2.75;;;;;;;;;;5019868;28;20052;-85
2023/08/18 12:21:31;;;;;;;7.45;2.90;;;;;;;;;;5022286;28;20427;-85
2023/08/18 12:23:58;;;;;;;6.68;2.60;;;;;;;;;;5019274;28;20030;-83
2023/08/18 12:26:23;;;;;;;6.00;2.97;;;;;;;;;;5023849;28;20131;-86
2023/08/18 12:28:49;;;;;;;4.75;2.40;;;;;;;;;;5024631;28;20420;-86
2023/08/18 12:31:17;;;;;;;3.58;2.42;;;;;;;;;;5020338;28;20120;-86
2023/08/18 12:33:44;;;;;;;2.95;2.40;;;;;;;;;;5022245;28;20049;-85
2023/08/18 12:36:10;;;;;;;3.75;2.60;;;;;;;;;;5027467;28;20034;-85
2023/08/18 12:38:35;;;;;;;5.30;2.47;;;;;;;;;;5028836;28;20072;-85
2023/08/18 12:41:02;;;;;;;4.68;2.63;;;;;;;;;;5025973;28;20044;-85
2023/08/18 12:43:28;;;;;;;3.40;2.42;;;;;;;;;;5021707;28;20038;-86
2023/08/18 12:45:53;;;;;;;6.60;2.33;;;;;;;;;;5016086;28;20044;-85
2023/08/18 12:48:19;;;;;;;3.08;2.40;;;;;;;;;;5029450;28;20044;-85
2023/08/18 12:50:45;;;;;;;3.85;2.30;;;;;;;;;;5026193;28;20036;-85
2023/08/18 12:53:10;;;;;;;4.50;2.38;;;;;;;;;;5022381;28;20038;-85
2023/08/18 12:55:36;;;;;;;4.15;2.22;;;;;;;;;;5022363;28;20088;-86
2023/08/18 12:58:01;;;;;;;4.13;2.17;;;;;;;;;;5036219;28;20053;-85
2023/08/18 13:00:27;;;;;;;3.83;2.20;;;;;;;;;;5032386;28;20042;-85
2023/08/18 13:02:53;;;;;;;2.30;2.10;;;;;;;;;;5025750;28;20033;-87
2023/08/18 13:05:18;;;;;;;2.70;1.92;;;;;;;;;;5022138;28;20029;-86
2023/08/18 13:07:44;;;;;;;2.40;2.10;;;;;;;;;;5005713;28;20687;-86
2023/08/18 13:10:09;;;;;;;3.20;2.05;;;;;;;;;;5022888;28;20037;-85
2023/08/18 13:12:35;;;;;;;3.60;2.30;;;;;;;;;;5027244;28;20381;-85
2023/08/18 13:15:00;;;;;;;4.32;2.00;;;;;;;;;;5031248;28;20565;-85
2023/08/18 13:17:25;;;;;;;4.88;2.20;;;;;;;;;;5020524;28;20034;-84
2023/08/18 13:19:51;;;;;;;3.60;2.03;;;;;;;;;;5019012;28;20076;-86
2023/08/18 13:22:16;;;;;;;3.60;2.13;;;;;;;;;;5015199;28;20093;-85
2023/08/18 13:24:42;;;;;;;3.83;2.10;;;;;;;;;;5027724;28;20048;-86
2023/08/18 13:27:07;;;;;;;3.10;1.90;;;;;;;;;;5027384;28;20211;-85
2023/08/18 13:29:33;;;;;;;2.60;2.22;;;;;;;;;;5020446;28;20057;-85
2023/08/18 13:31:58;;;;;;;4.22;1.92;;;;;;;;;;5012850;28;20030;-85
2023/08/18 13:34:24;;;;;;;3.97;2.25;;;;;;;;;;5019575;28;20041;-85
2023/08/18 13:36:49;;;;;;;2.85;2.20;;;;;;;;;;5026590;28;20041;-84
2023/08/18 13:39:19;;;;;;;3.35;2.00;;;;;;;;;;5021299;28;20037;-86
2023/08/18 13:41:46;;;;;;;3.97;2.00;;;;;;;;;;5003497;28;20040;-86
2023/08/18 13:44:11;;;;;;;5.00;2.00;;;;;;;;;;5019631;28;20038;-86
2023/08/18 13:46:37;;;;;;;4.35;2.20;;;;;;;;;;5029069;28;20120;-86
2023/08/18 13:49:02;;;;;;;3.58;1.95;;;;;;;;;;5026030;28;20096;-85
2023/08/18 13:51:29;;;;;;;3.58;2.10;;;;;;;;;;5021291;28;20033;-86
2023/08/18 13:53:55;;;;;;;3.63;2.05;;;;;;;;;;4999225;28;20133;-85
2023/08/18 13:56:20;;;;;;;3.25;1.83;;;;;;;;;;5023295;28;20049;-85
2023/08/18 13:58:46;;;;;;;3.20;2.08;;;;;;;;;;5028167;28;20188;-85
2023/08/18 14:01:11;;;;;;;12.70;2.05;;;;;;;;;;5022270;28;20021;-85
2023/08/18 14:03:37;;;;;;;2.40;1.80;;;;;;;;;;5018481;28;20049;-85
2023/08/18 14:06:02;;;;;;;4.03;2.00;;;;;;;;;;5015758;28;20037;-86
2023/08/18 14:08:28;;;;;;;3.17;2.03;;;;;;;;;;5018935;28;20060;-85
2023/08/18 14:10:53;;;;;;;4.47;1.92;;;;;;;;;;5004600;28;20044;-85
2023/08/18 14:13:19;;;;;;;4.18;2.15;;;;;;;;;;5004929;28;20091;-85
2023/08/18 14:15:45;;;;;;;6.15;2.10;;;;;;;;;;5026773;28;20133;-86
2023/08/18 14:18:11;;;;;;;4.57;1.90;;;;;;;;;;5017270;28;20040;-85
2023/08/18 14:20:36;;;;;;;3.42;2.05;;;;;;;;;;5015044;28;20037;-86
2023/08/18 14:23:02;;;;;;;3.58;2.00;;;;;;;;;;5009680;28;20038;-85
2023/08/18 14:25:28;;;;;;;5.85;1.92;;;;;;;;;;5025244;28;20034;-85
2023/08/18 14:27:53;;;;;;;3.20;1.80;;;;;;;;;;5015572;28;20034;-85
2023/08/18 14:30:20;;;;;;;2.80;2.00;;;;;;;;;;5020617;28;20060;-86
2023/08/18 14:32:48;;;;;;;3.75;2.00;;;;;;;;;;5024229;28;20092;-87
2023/08/18 14:35:14;;;;;;;6.00;2.17;;;;;;;;;;5029424;28;20048;-86
2023/08/18 14:37:40;;;;;;;5.40;2.00;;;;;;;;;;5023531;28;20093;-86